Time;durP1;ratioP1;P1;durP2;ratioP2;P2;SDS_P1;SDS_P2;PMS_P1;PMS_P2;Temp;Humidity;BMP_temperature;BMP_pressure;BME280_temperature;BME280_humidity;BME280_pressure;Samples;Min_cycle;Max_cycle;Signal;HPM_P1;HPM_P2
2021/04/20 00:01:22;;;;;;;;;;;;;;;-144.99;59.82;52260.56;5012169;28;19981;-79
2021/04/20 00:03:53;;;;;;;;;;;;;;;-144.99;60.10;52246.31;5012271;28;20013;-76
2021/04/20 00:06:25;;;;;;;;;;;;;;;-144.99;60.33;52227.97;5014191;28;19980;-79
2021/04/20 00:08:57;;;;;;;;;;;;;;;-144.99;60.34;52276.88;5012974;28;19978;-78
2021/04/20 00:11:28;;;;;;;;;;;;;;;-144.99;60.53;52258.53;5013574;28;20380;-78
2021/04/20 00:13:57;;;;;;;;;;;;;;;-144.99;60.63;52289.13;5012279;28;20478;-77
2021/04/20 00:16:28;;;;;;;;;;;;;;;-144.99;60.89;52256.50;5012749;28;19985;-79
2021/04/20 00:18:57;;;;;;;;;;;;;;;-144.99;61.06;52283.00;5011919;28;20025;-78
2021/04/20 00:21:26;;;;;;;;;;;;;;;-144.99;61.36;52280.97;5016872;28;19944;-78
2021/04/20 00:23:57;;;;;;;;;;;;;;;-144.99;61.59;52236.13;5013778;28;19989;-78
2021/04/20 00:26:26;;;;;;;;;;;;;;;-144.99;61.73;52252.44;5013372;28;19928;-80
2021/04/20 00:28:57;;;;;;;;;;;;;;;-144.99;61.99;52264.66;5012069;28;19980;-78
2021/04/20 00:31:26;;;;;;;;;;;;;;;-144.99;62.18;52260.56;5012478;28;19974;-76
2021/04/20 00:33:58;;;;;;;;;;;;;;;-144.99;62.31;52283.00;4993947;28;20033;-76
2021/04/20 00:36:27;;;;;;;;;;;;;;;-144.99;62.60;52280.97;5006764;28;20004;-80
2021/04/20 00:38:58;;;;;;;;;;;;;;;-144.99;62.66;52244.28;5011654;28;19969;-76
2021/04/20 00:41:30;;;;;;;;;;;;;;;-144.99;62.89;52260.56;5012804;28;20000;-76
2021/04/20 00:44:01;;;;;;;;;;;;;;;-144.99;63.05;52248.34;5045147;22;19989;-70
2021/04/20 00:46:33;;;;;;;;;;;;;;;-144.99;63.46;52268.72;5018067;28;20009;-71
2021/04/20 00:49:04;;;;;;;;;;;;;;;-144.99;63.65;52227.97;5028385;28;20423;-72
2021/04/20 00:51:36;;;;;;;;;;;;;;;-144.99;63.76;52287.06;5029270;28;20003;-71
2021/04/20 00:54:08;;;;;;;;;;;;;;;-144.99;63.95;52289.13;5027553;28;20047;-73
2021/04/20 00:56:36;;;;;;;;;;;;;;;-144.99;64.28;52252.44;5022685;28;19993;-71
2021/04/20 00:59:08;;;;;;;;;;;;;;;-144.99;64.30;52264.66;5029467;28;19966;-73
2021/04/20 01:01:40;;;;;;;;;;;;;;;-144.99;64.69;52285.03;5020057;28;19991;-74
2021/04/20 01:04:09;;;;;;;;;;;;;;;-144.99;64.93;52264.66;5030163;28;20143;-71
2021/04/20 01:06:42;;;;;;;;;;;;;;;-144.99;65.28;52293.19;5029983;28;19973;-73
2021/04/20 01:09:14;;;;;;;;;;;;;;;-144.99;65.57;52268.72;5030264;28;19973;-73
2021/04/20 01:11:43;;;;;;;;;;;;;;;-144.99;65.86;52260.56;5030308;28;19977;-73
2021/04/20 01:14:14;;;;;;;;;;;;;;;-144.99;65.98;52264.66;5029899;28;19990;-73
2021/04/20 01:16:43;;;;;;;;;;;;;;;-144.99;66.19;52252.44;5028564;28;19994;-72
2021/04/20 01:19:16;;;;;;;;;;;;;;;-144.99;66.32;52244.28;5030291;28;19980;-71
2021/04/20 01:21:46;;;;;;;;;;;;;;;-144.99;66.57;52295.22;5030566;28;19980;-71
2021/04/20 01:24:31;;;;;;;;;;;;;;;-144.99;66.63;52223.88;5038892;28;20015;-70
2021/04/20 01:27:02;;;;;;;;;;;;;;;-144.99;66.88;52252.44;5029203;28;19973;-72
2021/04/20 01:29:34;;;;;;;;;;;;;;;-144.99;67.12;52285.03;5029376;28;20023;-71
2021/04/20 01:32:02;;;;;;;;;;;;;;;-144.99;67.14;52285.03;5029891;28;20411;-72
2021/04/20 01:34:34;;;;;;;;;;;;;;;-144.99;67.34;52256.50;5029225;28;20076;-72
2021/04/20 01:37:02;;;;;;;;;;;;;;;-144.99;67.33;52285.03;5026576;28;19973;-72
2021/04/20 01:39:34;;;;;;;;;;;;;;;-144.99;67.52;52309.50;5029480;28;19984;-73
2021/04/20 01:42:06;;;;;;;;;;;;;;;-144.99;67.59;52276.88;5029781;28;19980;-72
2021/04/20 01:44:37;;;;;;;;;;;;;;;-144.99;67.86;52227.97;5028529;28;19997;-72
2021/04/20 01:47:09;;;;;;;;;;;;;;;-144.99;68.04;52262.63;5029889;28;20450;-73
2021/04/20 01:49:38;;;;;;;;;;;;;;;-144.99;68.66;52289.13;5029390;28;19988;-72
2021/04/20 01:52:07;;;;;;;;;;;;;;;-144.99;68.73;52219.81;5030984;28;19989;-73
2021/04/20 01:54:42;;;;;;;;;;;;;;;-144.99;68.94;52289.13;5028674;28;19995;-73
2021/04/20 01:57:13;;;;;;;;;;;;;;;-144.99;69.18;52232.03;5032044;28;19973;-73
2021/04/20 01:59:45;;;;;;;;;;;;;;;-144.99;69.43;52256.50;5031037;28;19999;-72
2021/04/20 02:02:17;;;;;;;;;;;;;;;-144.99;69.61;52242.22;5034137;28;20439;-71
2021/04/20 02:04:48;;;;;;;;;;;;;;;-144.99;69.98;52252.44;5033523;28;20080;-72
2021/04/20 02:07:17;;;;;;;;;;;;;;;-144.99;70.30;52272.81;5036858;28;20036;-72
2021/04/20 02:09:46;;;;;;;;;;;;;;;-144.99;70.30;52232.03;5035702;28;19975;-72
2021/04/20 02:12:18;;;;;;;;;;;;;;;-144.99;70.56;52256.50;5036283;28;20469;-72
2021/04/20 02:14:50;;;;;;;;;;;;;;;-144.99;70.67;52260.56;5034742;28;19993;-72
2021/04/20 02:17:19;;;;;;;;;;;;;;;-144.99;70.88;52280.97;5035700;28;19980;-71
2021/04/20 02:19:47;;;;;;;;;;;;;;;-144.99;70.91;52252.44;5033984;28;20000;-71
2021/04/20 02:22:16;;;;;;;;;;;;;;;-144.99;70.95;52258.53;5033745;28;20473;-73
2021/04/20 02:24:48;;;;;;;;;;;;;;;-144.99;71.02;52260.56;5033975;28;20123;-73
2021/04/20 02:27:20;;;;;;;;;;;;;;;-144.99;71.11;52301.34;5033908;28;19988;-72
2021/04/20 02:29:49;;;;;;;;;;;;;;;-144.99;71.36;52244.28;5033260;28;20800;-72
2021/04/20 02:32:21;;;;;;;;;;;;;;;-144.99;71.84;52321.72;5032563;28;19980;-72
2021/04/20 02:34:52;;;;;;;;;;;;;;;-144.99;71.99;52297.25;5032952;28;20236;-72
2021/04/20 02:37:23;;;;;;;;;;;;;;;-144.99;72.31;52252.44;5033482;28;19981;-72
2021/04/20 02:39:55;;;;;;;;;;;;;;;-144.99;72.47;52244.28;5031981;28;20473;-72
2021/04/20 02:42:24;;;;;;;;;;;;;;;-144.99;72.64;52272.81;5031780;28;20098;-72
2021/04/20 02:44:56;;;;;;;;;;;;;;;-144.99;73.06;52252.44;5031840;28;20202;-72
2021/04/20 02:47:29;;;;;;;;;;;;;;;-144.99;73.20;52227.97;5033988;28;19977;-73
2021/04/20 02:50:01;;;;;;;;;;;;;;;-144.99;73.57;52258.53;5023674;28;19977;-71
2021/04/20 02:52:32;;;;;;;;;;;;;;;-144.99;73.82;52256.50;5031673;28;19975;-72
2021/04/20 02:55:04;;;;;;;;;;;;;;;-144.99;74.05;52289.13;5035827;28;20042;-71
2021/04/20 02:57:31;;;;;;;;;;;;;;;-144.99;74.21;52244.28;5032954;28;19996;-71
2021/04/20 03:00:02;;;;;;;;;;;;;;;-144.99;74.45;52268.72;5036098;28;19977;-72
2021/04/20 03:02:32;;;;;;;;;;;;;;;-144.99;74.63;52285.03;5032170;28;19971;-74
2021/04/20 03:05:03;;;;;;;;;;;;;;;-144.99;74.62;52244.28;5031862;28;20020;-72
2021/04/20 03:07:36;;;;;;;;;;;;;;;-144.99;75.08;52227.97;5033043;28;19980;-72
2021/04/20 03:10:08;;;;;;;;;;;;;;;-144.99;75.09;52289.13;5032851;28;19973;-72
2021/04/20 03:12:41;;;;;;;;;;;;;;;-144.99;75.26;52248.34;5028716;28;19973;-70
2021/04/20 03:15:14;;;;;;;;;;;;;;;-144.99;75.46;52262.63;5031890;28;19989;-71
2021/04/20 03:17:47;;;;;;;;;;;;;;;-144.99;75.51;52264.66;5042240;28;20007;-71
2021/04/20 03:20:17;;;;;;;;;;;;;;;-144.99;75.73;52285.03;5034923;28;20193;-73
2021/04/20 03:22:49;;;;;;;;;;;;;;;-144.99;75.98;52244.28;5033462;28;19974;-74
2021/04/20 03:25:26;;;;;;;;;;;;;;;-144.99;76.04;52285.03;5032186;28;19985;-72
2021/04/20 03:27:56;;;;;;;;;;;;;;;-144.99;76.29;52236.13;5032975;28;20012;-74
2021/04/20 03:30:29;;;;;;;;;;;;;;;-144.99;76.51;52260.56;5030529;28;19980;-73
2021/04/20 03:33:14;;;;;;;;;;;;;;;-144.99;76.50;52305.41;5032117;28;20100;-74
2021/04/20 03:35:48;;;;;;;;;;;;;;;-144.99;76.59;52248.34;5031638;28;20047;-76
2021/04/20 03:38:24;;;;;;;;;;;;;;;-144.99;76.41;52248.34;5032362;28;20424;-74
2021/04/20 03:40:57;;;;;;;;;;;;;;;-144.99;76.72;52283.00;5031572;28;19977;-72
2021/04/20 03:43:31;;;;;;;;;;;;;;;-144.99;76.79;52297.25;5032020;28;20472;-72
2021/04/20 03:46:03;;;;;;;;;;;;;;;-144.99;77.09;52262.63;5031784;28;19977;-73
2021/04/20 03:48:34;;;;;;;;;;;;;;;-144.99;77.38;52260.56;5032024;28;19968;-72
2021/04/20 03:51:05;;;;;;;;;;;;;;;-144.99;77.71;52215.75;5031723;28;20026;-72
2021/04/20 03:53:38;;;;;;;;;;;;;;;-144.99;77.82;52311.53;5031640;28;19985;-73
2021/04/20 03:56:16;;;;;;;;;;;;;;;-144.99;77.76;52260.56;5031825;28;19984;-71
2021/04/20 03:58:53;;;;;;;;;;;;;;;-144.99;77.78;52280.97;5031195;28;19976;-72
2021/04/20 04:01:25;;;;;;;;;;;;;;;-144.99;78.31;52297.25;5030042;28;20284;-72
2021/04/20 04:03:57;;;;;;;;;;;;;;;-144.99;78.31;52280.97;5031955;28;19997;-73
2021/04/20 04:06:24;;;;;;;;;;;;;;;-144.99;78.56;52297.25;5031602;28;19977;-73
2021/04/20 04:08:56;;;;;;;;;;;;;;;-144.99;78.52;52256.50;5032022;28;19978;-72
2021/04/20 04:11:27;;;;;;;;;;;;;;;-144.99;78.86;52266.69;5030448;28;19974;-72
2021/04/20 04:13:58;;;;;;;;;;;;;;;-144.99;79.05;52276.88;5031977;28;19977;-73
2021/04/20 04:16:30;;;;;;;;;;;;;;;-144.99;79.25;52311.53;5031232;28;20400;-72
2021/04/20 04:19:00;;;;;;;;;;;;;;;-144.99;79.54;52270.78;5030998;28;19973;-70
2021/04/20 04:21:44;;;;;;;;;;;;;;;-144.99;79.92;52289.13;5029632;28;19976;-70
2021/04/20 04:24:15;;;;;;;;;;;;;;;-144.99;81.78;52301.34;5027139;28;20473;-70
2021/04/20 04:26:46;;;;;;;;;;;;;;;-144.99;81.83;52260.56;5029363;28;20022;-69
2021/04/20 04:29:21;;;;;;;;;;;;;;;-144.99;81.59;52252.44;5031116;28;19973;-70
2021/04/20 04:31:53;;;;;;;;;;;;;;;-144.99;81.88;52254.47;5030054;28;20499;-72
2021/04/20 04:34:25;;;;;;;;;;;;;;;-144.99;81.68;52264.66;5030499;28;19994;-72
2021/04/20 04:36:56;;;;;;;;;;;;;;;-144.99;81.80;52285.03;5029990;28;19996;-70
2021/04/20 04:39:28;;;;;;;;;;;;;;;-144.99;81.70;52268.72;5031458;28;19980;-74
2021/04/20 04:41:59;;;;;;;;;;;;;;;-144.99;81.21;52301.34;5018798;28;20381;-74
2021/04/20 04:44:32;;;;;;;;;;;;;;;-144.99;80.94;52268.72;5030997;28;20549;-73
2021/04/20 04:47:03;;;;;;;;;;;;;;;-144.99;80.71;52280.97;5030091;28;20210;-74
2021/04/20 04:49:35;;;;;;;;;;;;;;;-144.99;80.54;52313.56;5030673;28;19973;-75
2021/04/20 04:52:06;;;;;;;;;;;;;;;-144.99;80.38;52266.69;5030840;28;20020;-74
2021/04/20 04:54:38;;;;;;;;;;;;;;;-144.99;80.15;52256.50;5029720;28;19992;-75
2021/04/20 04:57:07;;;;;;;;;;;;;;;-144.99;79.92;52223.88;5029870;28;19989;-77
2021/04/20 04:59:37;;;;;;;;;;;;;;;-144.99;80.11;52219.81;5023325;28;20026;-74
2021/04/20 05:02:09;;;;;;;;;;;;;;;-144.99;80.01;52211.66;5031262;28;20499;-72
2021/04/20 05:04:40;;;;;;;;;;;;;;;-144.99;79.74;52240.19;5031158;28;20322;-71
2021/04/20 05:07:12;;;;;;;;;;;;;;;-144.99;79.34;52280.97;5031171;28;20484;-72
2021/04/20 05:09:43;;;;;;;;;;;;;;;-144.99;79.08;52244.28;5035059;28;20001;-73
2021/04/20 05:12:15;;;;;;;;;;;;;;;-144.99;78.86;52301.34;5035433;28;20310;-74
2021/04/20 05:14:47;;;;;;;;;;;;;;;-144.99;78.70;52236.13;3986870;28;10000537;-73
2021/04/20 05:17:20;;;;;;;;;;;;;;;-144.99;78.44;52256.50;5028336;28;19996;-72
2021/04/20 05:19:52;;;;;;;;;;;;;;;-144.99;78.22;52232.03;5029425;28;19973;-73
2021/04/20 05:22:24;;;;;;;;;;;;;;;-144.99;78.00;52262.63;5036810;28;19977;-70
2021/04/20 05:24:55;;;;;;;;;;;;;;;-144.99;77.78;52232.03;5027474;28;19999;-72
2021/04/20 05:27:27;;;;;;;;;;;;;;;-144.99;77.52;52252.44;5026326;28;19966;-74
2021/04/20 05:29:59;;;;;;;;;;;;;;;-144.99;77.31;52240.19;5027983;28;20178;-73
2021/04/20 05:32:30;;;;;;;;;;;;;;;-144.99;76.91;52248.34;5027683;28;19985;-73
2021/04/20 05:35:02;;;;;;;;;;;;;;;-144.99;76.93;52215.75;5027616;28;20349;-72
2021/04/20 05:37:35;;;;;;;;;;;;;;;-144.99;76.78;52219.81;5031125;28;20510;-72
2021/04/20 05:40:10;;;;;;;;;;;;;;;-144.99;76.97;52276.88;5033958;28;19981;-72
2021/04/20 05:42:42;;;;;;;;;;;;;;;-144.99;76.78;52238.16;5032809;28;19973;-73
2021/04/20 05:45:15;;;;;;;;;;;;;;;-144.99;76.70;52223.88;5028465;28;20018;-71
2021/04/20 05:47:48;;;;;;;;;;;;;;;-144.99;76.40;52248.34;5031678;28;20043;-71
2021/04/20 05:50:21;;;;;;;;;;;;;;;-144.99;76.06;52236.13;5031322;28;20149;-73
2021/04/20 05:52:53;;;;;;;;;;;;;;;-144.99;75.77;52242.22;5030166;28;20028;-73
2021/04/20 05:55:24;;;;;;;;;;;;;;;-144.99;75.69;52232.03;5035212;28;19993;-73
2021/04/20 05:57:57;;;;;;;;;;;;;;;-144.99;75.31;52248.34;5036479;28;19981;-71
2021/04/20 06:00:30;;;;;;;;;;;;;;;-144.99;74.97;52205.53;5036023;28;19984;-72
2021/04/20 06:03:01;;;;;;;;;;;;;;;-144.99;74.87;52219.81;5031080;28;19989;-73
2021/04/20 06:05:28;;;;;;;;;;;;;;;-144.99;74.41;52230.00;5032303;28;20072;-72
2021/04/20 06:07:58;;;;;;;;;;;;;;;-144.99;73.25;52244.28;5035903;28;19973;-72
2021/04/20 06:10:30;;;;;;;;;;;;;;;-144.99;72.76;52240.19;5035178;28;19977;-72
2021/04/20 06:13:02;;;;;;;;;;;;;;;-144.99;72.23;52248.34;5030075;28;20088;-74
2021/04/20 06:15:32;;;;;;;;;;;;;;;-144.99;71.74;52195.34;5037792;28;19993;-71
2021/04/20 06:18:03;;;;;;;;;;;;;;;-144.99;70.79;52232.03;5042204;28;19981;-72
2021/04/20 06:20:35;;;;;;;;;;;;;;;-144.99;70.32;52227.97;5041479;28;19973;-73
2021/04/20 06:23:08;;;;;;;;;;;;;;;-144.99;69.36;52215.75;5036969;28;19993;-74
2021/04/20 06:25:39;;;;;;;;;;;;;;;-144.99;69.06;52199.44;5029720;28;20251;-73
2021/04/20 06:28:10;;;;;;;;;;;;;;;-144.99;68.67;52199.44;5029880;28;19984;-74
2021/04/20 06:30:48;;;;;;;;;;;;;;;-144.99;68.37;52219.81;5029946;28;19976;-72
2021/04/20 06:33:20;;;;;;;;;;;;;;;-144.99;67.57;52207.59;5029969;28;20086;-72
2021/04/20 06:35:51;;;;;;;;;;;;;;;-144.99;66.96;52211.66;5030787;28;20123;-74
2021/04/20 06:38:20;;;;;;;;;;;;;;;-144.99;66.28;52203.50;5030225;28;20067;-72
2021/04/20 06:40:53;;;;;;;;;;;;;;;-144.99;65.92;52191.28;5029581;28;19984;-72
2021/04/20 06:43:37;;;;;;;;;;;;;;;-144.99;65.64;52221.84;5028839;22;10001328;-75
2021/04/20 06:46:13;;;;;;;;;;;;;;;-144.99;64.21;52205.53;5010046;28;19977;-76
2021/04/20 06:48:47;;;;;;;;;;;;;;;-144.99;64.58;52215.75;5004251;28;19988;-75
2021/04/20 06:51:19;;;;;;;;;;;;;;;-144.99;64.10;52223.88;5013745;28;20001;-74
2021/04/20 06:53:53;;;;;;;;;;;;;;;-144.99;63.67;52195.34;5002640;28;20044;-74
2021/04/20 06:56:31;;;;;;;;;;;;;;;-144.99;63.12;52219.81;5003425;28;20053;-76
2021/04/20 06:59:06;;;;;;;;;;;;;;;-144.99;62.62;52193.31;5008534;28;19983;-73
2021/04/20 07:01:41;;;;;;;;;;;;;;;-144.99;61.92;52179.06;4999087;28;20438;-74
2021/04/20 07:04:24;;;;;;;;;;;;;;;-144.99;61.34;52179.06;5009915;28;20068;-77
2021/04/20 07:06:59;;;;;;;;;;;;;;;-144.99;59.56;52170.91;5010395;28;20464;-76
2021/04/20 07:09:30;;;;;;;;;;;;;;;-144.99;58.58;52158.66;5006876;28;20050;-77
2021/04/20 07:12:03;;;;;;;;;;;;;;;-144.99;58.29;52195.34;4997127;28;20052;-77
2021/04/20 07:14:40;;;;;;;;;;;;;;;-144.99;57.66;52166.81;5008995;28;20028;-77
2021/04/20 07:17:25;;;;;;;;;;;;;;;-144.99;57.44;52199.44;5003471;28;20048;-78
2021/04/20 07:20:20;;;;;;;;;;;;;;;-144.99;56.22;52187.19;5008991;28;19970;-78
2021/04/20 07:23:07;;;;;;;;;;;;;;;-144.99;55.84;52166.81;5011462;28;20311;-78
2021/04/20 07:25:55;;;;;;;;;;;;;;;-144.99;55.03;52142.38;5008588;28;20000;-76
2021/04/20 07:28:32;;;;;;;;;;;;;;;-144.99;54.29;52136.25;4990590;28;20035;-77
2021/04/20 07:31:12;;;;;;;;;;;;;;;-144.99;54.29;52142.38;5011257;28;19977;-77
2021/04/20 07:33:56;;;;;;;;;;;;;;;-144.99;52.75;52183.13;5010429;28;20030;-78
2021/04/20 07:36:36;;;;;;;;;;;;;;;-144.99;51.99;52156.63;5007851;28;20048;-77
2021/04/20 07:39:10;;;;;;;;;;;;;;;-144.99;51.85;52162.75;5000017;28;19972;-78
2021/04/20 07:41:44;;;;;;;;;;;;;;;-144.99;52.10;52146.44;5009552;28;19973;-76
2021/04/20 07:44:17;;;;;;;;;;;;;;;-144.99;52.35;52158.66;5004841;28;19921;-77
2021/04/20 07:46:50;;;;;;;;;;;;;;;-144.99;51.32;52130.13;5000320;28;24460;-75
2021/04/20 07:49:26;;;;;;;;;;;;;;;-144.99;50.52;52207.59;5009655;28;25011;-76
2021/04/20 07:52:10;;;;;;;57.92;48.47;;;;;;;-144.99;50.29;52128.09;5011297;28;24486;-75
2021/04/20 07:54:42;;;;;;;;;;;;;;;-144.99;49.76;52146.44;4998007;28;20312;-76
2021/04/20 07:57:19;;;;;;;;;;;;;;;-144.99;49.15;52121.97;5009061;28;20048;-76
2021/04/20 07:59:57;;;;;;;;;;;;;;;-144.99;48.88;52158.66;5011406;28;20039;-78
2021/04/20 08:02:33;;;;;;;;;;;;;;;-144.99;48.19;52146.44;5012016;28;20076;-76
2021/04/20 08:05:10;;;;;;;;;;;;;;;-144.99;46.79;52142.38;5011152;28;19973;-77
2021/04/20 08:07:45;;;;;;;;;;;;;;;-144.99;46.42;52154.59;5011490;28;20073;-76
2021/04/20 08:10:18;;;;;;;;;;;;;;;-144.99;45.79;52117.91;5010158;28;19981;-74
2021/04/20 08:12:59;;;;;;;;;;;;;;;-144.99;45.71;52172.94;5007891;28;19987;-76
2021/04/20 08:15:33;;;;;;;;;;;;;;;-144.99;45.68;52142.38;5003767;28;19989;-77
2021/04/20 08:18:07;;;;;;;;;;;;;;;-144.99;44.92;52134.22;5009582;28;20215;-77
2021/04/20 08:20:39;;;;;;;;;;;;;;;-144.99;44.70;52113.84;5000984;28;19970;-78
2021/04/20 08:23:13;;;;;;;;;;;;;;;-144.99;44.48;52174.97;5009477;28;19982;-75
2021/04/20 08:25:45;;;;;;;;;;;;;;;-144.99;44.20;52154.59;5004285;28;19981;-75
2021/04/20 08:28:21;;;;;;;;;;;;;;;-144.99;44.30;52134.22;5008225;28;19985;-78
2021/04/20 08:30:56;;;;;;;;;;;;;;;-144.99;43.92;52111.78;5014302;28;19977;-79
2021/04/20 08:33:32;;;;;;;;;;;;;;;-144.99;43.39;52134.22;5015491;28;19976;-79
2021/04/20 08:36:06;;;;;;;;;;;;;;;-144.99;43.13;52126.06;5014053;28;19993;-77
2021/04/20 08:38:54;;;;;;;;;;;;;;;-144.99;43.01;52138.28;5013894;28;20258;-77
2021/04/20 08:41:31;;;;;;;;;;;;;;;-144.99;42.40;52113.84;5012176;28;19986;-80
2021/04/20 08:44:18;;;;;;;;;;;;;;;-144.99;42.35;52134.22;5001553;28;19989;-77
2021/04/20 08:46:54;;;;;;;;;;;;;;;-144.99;41.27;52117.91;5005721;28;19974;-77
2021/04/20 08:49:37;;;;;;;100.43;62.10;;;;;;;-144.99;40.76;52097.53;5010894;28;24543;-77
2021/04/20 08:52:20;;;;;;;70.28;52.22;;;;;;;-144.99;40.72;52146.44;5010829;28;20770;-79
2021/04/20 08:55:03;;;;;;;;;;;;;;;-144.99;40.49;52142.38;5002576;28;20234;-78
2021/04/20 08:57:41;;;;;;;;;;;;;;;-144.99;40.01;52109.75;5011564;28;19948;-78
2021/04/20 09:00:19;;;;;;;23.80;22.50;;;;;;;-144.99;39.78;52121.97;5008174;28;24485;-78
2021/04/20 09:03:02;;;;;;;;;;;;;;;-144.99;39.06;52117.91;5009454;28;20321;-77
2021/04/20 09:05:32;;;;;;;;;;;;;;;-144.99;38.87;52089.38;4997939;28;19956;-78
2021/04/20 09:08:10;;;;;;;;;;;;;;;-144.99;38.84;52093.44;5009176;28;19972;-77
2021/04/20 09:10:47;;;;;;;;;;;;;;;-144.99;39.01;52121.97;5013099;28;19925;-77
2021/04/20 09:13:21;;;;;;;;;;;;;;;-144.99;38.38;52109.75;5009972;28;19922;-78
2021/04/20 09:15:53;;;;;;;;;;;;;;;-144.99;38.48;52101.59;5007726;28;20028;-78
2021/04/20 09:18:28;;;;;;;;;;;;;;;-144.99;38.36;52105.69;5003103;28;19925;-78
2021/04/20 09:21:02;;;;;;;;;;;;;;;-144.99;38.05;52091.41;5011492;28;20035;-77
2021/04/20 09:23:38;;;;;;;;;;;;;;;-144.99;37.84;52117.91;5006565;28;19926;-78
2021/04/20 09:26:22;;;;;;;;;;;;;;;-144.99;36.42;52101.59;5011947;28;19925;-76
2021/04/20 09:29:01;;;;;;;;;;;;;;;-144.99;36.56;52071.03;5013304;28;19925;-77
2021/04/20 09:31:40;;;;;;;;;;;;;;;-144.99;36.65;52093.44;5016273;28;19937;-76
2021/04/20 09:34:12;;;;;;;;;;;;;;;-144.99;36.17;52069.00;5014001;28;19925;-78
2021/04/20 09:36:44;;;;;;;;;;;;;;;-144.99;36.41;52064.91;5010254;28;19948;-77
2021/04/20 09:39:17;;;;;;;;;;;;;;;-144.99;35.41;52075.09;5012478;28;19968;-76
2021/04/20 09:41:49;;;;;;;;;;;;;;;-144.99;35.06;52073.06;5012198;28;19996;-77
2021/04/20 09:44:48;;;;;;;;;;;;;;;-144.99;34.97;52060.84;5011218;28;20359;-78
2021/04/20 09:47:37;;;;;;;;;;;;;;;-144.99;34.70;52087.34;4913482;29;20369;-78
2021/04/20 09:50:26;;;;;;;107.15;63.35;;;;;;;-144.99;34.50;52056.78;4997487;28;24524;-77
2021/04/20 09:53:06;;;;;;;;;;;;;;;-144.99;33.55;52087.34;5003680;28;20271;-80
2021/04/20 09:55:44;;;;;;;120.20;66.18;;;;;;;-144.99;33.15;52052.69;4998740;28;24509;-79
2021/04/20 09:58:23;;;;;;;86.60;58.40;;;;;;;-144.99;33.46;52103.66;5007413;28;20672;-77
2021/04/20 10:01:04;;;;;;;85.37;57.77;;;;;;;-144.99;33.11;52044.53;5008689;28;20269;-76
2021/04/20 10:03:46;;;;;;;90.30;59.50;;;;;;;-144.99;32.33;52009.91;5010382;28;20628;-78
2021/04/20 10:06:33;;;;;;;86.88;58.20;;;;;;;-144.99;32.23;52073.06;5003600;28;20255;-78
2021/04/20 10:09:26;;;;;;;93.18;59.80;;;;;;;-144.99;31.80;52064.91;5012262;28;21025;-79
2021/04/20 10:12:25;;;;;;;90.22;59.47;;;;;;;-144.99;31.65;52036.38;5011039;28;20213;-78
2021/04/20 10:15:17;;;;;;;91.93;59.57;;;;;;;-144.99;31.49;52024.16;5008699;28;20232;-77
2021/04/20 10:18:05;;;;;;;104.03;62.87;;;;;;;-144.99;29.72;52081.22;5011072;28;20708;-78
2021/04/20 10:20:47;;;;;;;93.27;60.20;;;;;;;-144.99;29.70;52071.03;5007414;28;20283;-78
2021/04/20 10:23:29;;;;;;;85.25;57.38;;;;;;;-144.99;30.31;52016.00;4993564;28;20220;-77
2021/04/20 10:26:10;;;;;;;85.10;57.75;;;;;;;-144.99;29.41;52052.69;5010414;28;20752;-78
2021/04/20 10:28:49;;;;;;;90.37;59.80;;;;;;;-144.99;29.74;52009.91;5005711;28;20653;-77
2021/04/20 10:31:31;;;;;;;87.97;58.95;;;;;;;-144.99;29.87;51995.63;5010837;28;20292;-77
2021/04/20 10:34:06;;;;;;;86.07;58.50;;;;;;;-144.99;29.68;52003.78;5009715;28;20332;-77
2021/04/20 10:36:41;;;;;;;88.17;59.23;;;;;;;-144.99;29.70;51958.94;5003709;28;20288;-77
2021/04/20 10:39:17;;;;;;;92.07;60.13;;;;;;;-144.99;28.72;51967.09;5009360;28;20290;-77
2021/04/20 10:41:48;;;;;;;93.67;61.00;;;;;;;-144.99;28.38;51936.53;5010744;28;20221;-77
2021/04/20 10:44:25;;;;;;;92.87;60.10;;;;;;;-144.99;28.13;51926.34;5007630;28;20269;-77
2021/04/20 10:47:03;;;;;;;94.77;60.37;;;;;;;-144.99;28.04;51950.78;5003730;28;20208;-77
2021/04/20 10:49:38;;;;;;;93.10;60.23;;;;;;;-144.99;28.45;51922.25;5012678;28;20213;-77
2021/04/20 10:52:18;;;;;;;94.27;60.73;;;;;;;-144.99;28.18;51936.53;5014175;28;20223;-78
2021/04/20 10:54:56;;;;;;;105.87;64.53;;;;;;;-144.99;28.07;51897.81;4664542;28;10000001;-78
2021/04/20 10:57:35;;;;;;;99.87;62.73;;;;;;;-144.99;28.01;51942.63;5008892;28;20272;-77
2021/04/20 11:00:27;;;;;;;95.33;61.37;;;;;;;-144.99;28.75;51942.63;5006850;28;20249;-77
2021/04/20 11:03:08;;;;;;;102.80;63.43;;;;;;;-144.99;28.56;51971.16;5002214;28;20583;-77
2021/04/20 11:05:50;;;;;;;88.63;58.17;;;;;;;-144.99;28.58;51922.25;5001237;28;20249;-76
2021/04/20 11:08:40;;;;;;;107.00;64.10;;;;;;;-144.99;28.38;51926.34;5002807;28;20219;-77
2021/04/20 11:11:25;;;;;;;106.77;64.70;;;;;;;-144.99;28.10;51873.34;5010970;28;20222;-77
2021/04/20 11:13:59;;;;;;;114.83;66.37;;;;;;;-144.99;27.23;51918.19;5010941;28;20489;-77
2021/04/20 11:16:42;;;;;;;114.50;66.73;;;;;;;-144.99;27.64;51930.41;5010236;28;20231;-78
2021/04/20 11:19:18;;;;;;;120.97;68.00;;;;;;;-144.99;27.25;51865.19;5007054;28;20248;-78
2021/04/20 11:21:54;;;;;;;122.07;68.80;;;;;;;-144.99;26.50;51889.66;5008232;28;20237;-79
2021/04/20 11:24:35;;;;;;;124.20;68.67;;;;;;;-144.99;26.73;51873.34;5006616;28;20226;-78
2021/04/20 11:27:13;;;;;;;122.07;68.30;;;;;;;-144.99;27.25;51960.97;5010151;28;20682;-77
2021/04/20 11:29:55;;;;;;;122.23;68.37;;;;;;;-144.99;26.93;51893.72;5003778;28;20213;-77
2021/04/20 11:32:32;;;;;;;113.37;66.37;;;;;;;-144.99;27.14;51893.72;5010944;28;20301;-78
2021/04/20 11:35:14;;;;;;;29.85;27.95;;;;;;;-144.99;27.33;51848.91;5011145;28;20333;-77
2021/04/20 11:37:44;;;;;;;;;;;;;;;-144.99;27.16;51891.69;5010846;28;20297;-76
2021/04/20 11:40:30;;;;;;;102.90;60.00;;;;;;;-144.99;26.53;51865.19;5009022;28;24560;-77
2021/04/20 11:43:08;;;;;;;138.03;71.80;;;;;;;-144.99;26.20;51848.91;5006783;28;20517;-77
2021/04/20 11:45:44;;;;;;;131.50;70.57;;;;;;;-144.99;26.47;51885.56;5013900;28;20281;-78
2021/04/20 11:48:22;;;;;;;132.63;70.83;;;;;;;-144.99;26.46;51838.72;5016123;28;20211;-79
2021/04/20 11:51:02;;;;;;;125.27;68.43;;;;;;;-144.99;26.02;51844.81;5017544;28;20314;-78
2021/04/20 11:53:43;;;;;;;135.20;71.40;;;;;;;-144.99;25.73;51869.28;5013787;28;20222;-77
2021/04/20 11:56:19;;;;;;;133.63;71.30;;;;;;;-144.99;25.50;51842.78;5007164;28;20611;-78
2021/04/20 11:58:58;;;;;;;133.67;71.50;;;;;;;-144.99;25.71;51844.81;5011900;28;20227;-79
2021/04/20 12:01:34;;;;;;;132.60;70.37;;;;;;;-144.99;25.78;51850.94;5010340;28;20206;-78
2021/04/20 12:04:08;;;;;;;138.40;71.70;;;;;;;-144.99;25.84;51852.97;5008901;28;20233;-79
2021/04/20 12:06:49;;;;;;;136.53;72.03;;;;;;;-144.99;25.70;51857.03;5012523;28;20304;-77
2021/04/20 12:09:27;;;;;;;136.70;71.60;;;;;;;-144.99;25.82;51885.56;5011468;28;20210;-76
2021/04/20 12:12:00;;;;;;;34.73;32.07;;;;;;;-144.99;26.40;51879.47;5012695;28;20295;-78
2021/04/20 12:14:33;;;;;;;;;;;;;;;-144.99;26.63;51852.97;5013418;28;20670;-80
2021/04/20 12:17:08;;;;;;;182.60;80.83;;;;;;;-144.99;26.01;51893.72;5012255;28;24578;-76
2021/04/20 12:19:45;;;;;;;154.40;74.97;;;;;;;-144.99;26.60;51859.09;5009110;28;20206;-79
2021/04/20 12:22:25;;;;;;;148.23;73.80;;;;;;;-144.99;26.14;51912.06;5009277;28;20241;-76
2021/04/20 12:25:00;;;;;;;149.43;74.17;;;;;;;-144.99;25.98;51873.34;5009158;28;20338;-78
2021/04/20 12:27:33;;;;;;;147.00;74.47;;;;;;;-144.99;26.23;51848.91;5008305;28;20213;-77
2021/04/20 12:30:14;;;;;;;144.30;73.37;;;;;;;-144.99;25.44;51863.16;4999308;28;20303;-78
2021/04/20 12:32:48;;;;;;;145.00;73.77;;;;;;;-144.99;25.44;51891.69;5005237;28;20209;-78
2021/04/20 12:35:31;;;;;;;145.37;73.70;;;;;;;-144.99;25.83;51861.13;5008799;28;21183;-77
2021/04/20 12:38:07;;;;;;;145.00;73.37;;;;;;;-144.99;26.15;51932.44;5005656;28;20233;-77
2021/04/20 12:40:42;;;;;;;144.07;73.70;;;;;;;-144.99;26.03;51869.28;5009653;28;20304;-76